createdAt,value
2023-05-23T00:01:14.796Z,19.74
2023-05-23T00:03:44.469Z,19.56
2023-05-23T00:06:12.375Z,19.53
2023-05-23T00:08:40.151Z,19.67
2023-05-23T00:11:15.240Z,19.53
2023-05-23T00:13:42.589Z,19.57
2023-05-23T00:16:10.601Z,19.50
2023-05-23T00:18:38.589Z,19.40
2023-05-23T00:21:06.210Z,19.65
2023-05-23T00:23:34.139Z,19.44
2023-05-23T00:26:01.618Z,19.38
2023-05-23T00:28:29.393Z,19.38
2023-05-23T00:30:56.906Z,19.35
2023-05-23T00:33:24.749Z,19.46
2023-05-23T00:35:52.530Z,19.40
2023-05-23T00:38:20.182Z,19.37
2023-05-23T00:40:48.568Z,19.38
2023-05-23T00:43:16.531Z,19.37
2023-05-23T00:45:45.391Z,19.27
2023-05-23T00:48:13.093Z,19.30
2023-05-23T00:50:40.743Z,19.33
2023-05-23T00:53:08.493Z,19.32
2023-05-23T00:55:35.964Z,19.31
2023-05-23T00:58:04.026Z,19.22
2023-05-23T01:00:32.039Z,19.20
2023-05-23T01:02:59.675Z,19.26
2023-05-23T01:05:28.057Z,19.14
2023-05-23T01:07:56.196Z,19.21
2023-05-23T01:10:25.210Z,19.19
2023-05-23T01:12:52.652Z,19.30
2023-05-23T01:15:22.066Z,19.47
2023-05-23T01:18:00.287Z,19.08
2023-05-23T01:20:42.480Z,19.08
2023-05-23T01:23:12.839Z,18.92
2023-05-23T01:25:46.846Z,18.89
2023-05-23T01:28:15.701Z,18.93
2023-05-23T01:30:45.001Z,18.85
2023-05-23T01:33:13.389Z,18.87
2023-05-23T01:35:43.875Z,18.88
2023-05-23T01:38:11.841Z,18.93
2023-05-23T01:40:39.634Z,18.89
2023-05-23T01:43:10.255Z,18.73
2023-05-23T01:45:38.352Z,18.68
2023-05-23T01:48:06.388Z,18.76
2023-05-23T01:50:34.004Z,18.82
2023-05-23T01:53:04.955Z,18.82
2023-05-23T01:55:33.368Z,18.86
2023-05-23T01:58:00.772Z,18.80
2023-05-23T02:00:28.469Z,18.72
2023-05-23T02:02:56.147Z,18.97
2023-05-23T02:05:24.303Z,18.75
2023-05-23T02:08:01.967Z,18.52
2023-05-23T02:10:29.707Z,18.56
2023-05-23T02:12:57.021Z,18.43
2023-05-23T02:15:24.286Z,18.43
2023-05-23T02:17:52.226Z,18.47
2023-05-23T02:20:20.477Z,18.61
2023-05-23T02:22:48.884Z,18.49
2023-05-23T02:25:16.360Z,18.40
2023-05-23T02:27:43.657Z,18.37
2023-05-23T02:30:12.567Z,18.44
2023-05-23T02:32:40.281Z,18.52
2023-05-23T02:35:08.377Z,18.33
2023-05-23T02:37:36.593Z,18.40
2023-05-23T02:40:07.939Z,18.50
2023-05-23T02:42:36.443Z,18.49
2023-05-23T02:45:04.216Z,18.52
2023-05-23T02:47:32.543Z,18.33
2023-05-23T02:50:02.104Z,18.39
2023-05-23T02:52:32.430Z,18.39
2023-05-23T02:55:00.152Z,18.31
2023-05-23T02:57:28.625Z,18.35
2023-05-23T02:59:56.359Z,18.58
2023-05-23T03:02:26.195Z,18.33
2023-05-23T03:04:54.166Z,18.26
2023-05-23T03:07:28.213Z,18.22
2023-05-23T03:09:56.663Z,18.30
2023-05-23T03:12:25.324Z,18.18
2023-05-23T03:14:53.860Z,17.99
2023-05-23T03:17:21.994Z,18.03
2023-05-23T03:19:52.956Z,18.02
2023-05-23T03:22:20.889Z,18.02
2023-05-23T03:24:49.116Z,18.27
2023-05-23T03:27:16.545Z,18.27
2023-05-23T03:29:43.954Z,18.17
2023-05-23T03:32:11.808Z,18.01
2023-05-23T03:34:39.902Z,18.08
2023-05-23T03:37:08.537Z,18.16
2023-05-23T03:39:39.410Z,18.24
2023-05-23T03:42:07.318Z,18.23
2023-05-23T03:44:37.168Z,18.41
2023-05-23T03:47:07.072Z,18.22
2023-05-23T03:49:36.615Z,18.10
2023-05-23T03:52:05.134Z,18.39
2023-05-23T03:54:35.200Z,18.33
2023-05-23T03:57:03.180Z,18.41
2023-05-23T03:59:30.816Z,18.73
2023-05-23T04:02:01.053Z,18.51
2023-05-23T04:04:31.292Z,18.58
2023-05-23T04:06:59.891Z,18.45
2023-05-23T04:09:28.826Z,18.36
2023-05-23T04:11:57.334Z,18.50
2023-05-23T04:14:25.292Z,18.42
2023-05-23T04:16:53.165Z,18.42
2023-05-23T04:19:23.758Z,18.62
2023-05-23T04:21:52.302Z,18.89
2023-05-23T04:24:22.064Z,18.81
2023-05-23T04:26:50.503Z,18.61
2023-05-23T04:29:18.180Z,18.75
2023-05-23T04:31:46.825Z,18.73
2023-05-23T04:34:17.595Z,18.91
2023-05-23T04:36:46.181Z,18.97
2023-05-23T04:39:16.483Z,19.06
2023-05-23T04:41:46.326Z,19.20
2023-05-23T04:44:15.339Z,19.57
2023-05-23T04:46:43.213Z,19.64
2023-05-23T04:49:11.229Z,19.74
2023-05-23T04:51:39.396Z,19.71
2023-05-23T04:54:09.835Z,19.87
2023-05-23T04:56:39.152Z,20.09
2023-05-23T04:59:08.919Z,20.06
2023-05-23T05:01:40.825Z,20.00
2023-05-23T05:04:16.164Z,20.08
2023-05-23T05:06:48.729Z,20.28
2023-05-23T05:09:18.914Z,20.41
2023-05-23T05:11:47.988Z,20.75
2023-05-23T05:14:19.343Z,20.77
2023-05-23T05:16:50.428Z,20.66
2023-05-23T05:19:18.817Z,20.86
2023-05-23T05:21:47.197Z,21.17
2023-05-23T05:24:15.883Z,21.27
2023-05-23T05:26:43.783Z,21.26
2023-05-23T05:29:13.394Z,21.12
2023-05-23T05:31:43.670Z,21.41
2023-05-23T05:34:19.081Z,21.74
2023-05-23T05:36:50.504Z,21.82
2023-05-23T05:39:19.507Z,21.79
2023-05-23T05:41:46.993Z,21.72
2023-05-23T05:44:15.459Z,21.85
2023-05-23T05:46:44.683Z,21.77
2023-05-23T05:49:13.193Z,21.85
2023-05-23T05:51:42.139Z,21.78
2023-05-23T05:54:10.779Z,22.02
2023-05-23T05:56:40.008Z,22.24
2023-05-23T05:59:09.104Z,22.28
2023-05-23T06:01:39.497Z,22.41
2023-05-23T06:04:08.972Z,22.14
2023-05-23T06:06:37.173Z,22.53
2023-05-23T06:09:05.124Z,22.68
2023-05-23T06:11:35.137Z,22.78
2023-05-23T06:14:03.303Z,22.91
2023-05-23T06:16:32.996Z,23.04
2023-05-23T06:19:01.624Z,23.75
2023-05-23T06:21:29.692Z,23.80
2023-05-23T06:23:59.685Z,23.49
2023-05-23T06:26:27.691Z,23.37
2023-05-23T06:28:55.854Z,23.65
2023-05-23T06:31:24.170Z,23.79
2023-05-23T06:33:52.888Z,24.18
2023-05-23T06:36:20.476Z,24.56
2023-05-23T06:38:50.033Z,24.08
2023-05-23T06:41:18.730Z,23.80
2023-05-23T06:43:46.910Z,24.20
2023-05-23T06:46:17.046Z,24.49
2023-05-23T06:48:47.126Z,25.15
2023-05-23T06:51:19.235Z,25.22
2023-05-23T06:53:47.101Z,25.07
2023-05-23T06:56:15.703Z,24.77
2023-05-23T06:58:47.108Z,25.16
2023-05-23T07:01:18.609Z,24.99
2023-05-23T07:03:47.076Z,25.01
2023-05-23T07:06:17.006Z,25.12
2023-05-23T07:08:46.940Z,25.36
2023-05-23T07:11:16.319Z,25.67
2023-05-23T07:13:45.239Z,25.56
2023-05-23T07:16:14.499Z,25.90
2023-05-23T07:18:47.519Z,26.04
2023-05-23T07:21:16.418Z,26.10
2023-05-23T07:23:46.255Z,26.30
2023-05-23T07:26:14.246Z,25.83
2023-05-23T07:28:44.010Z,26.39
2023-05-23T07:31:13.676Z,26.47
2023-05-23T07:33:41.518Z,26.54
2023-05-23T07:36:10.874Z,26.97
2023-05-23T07:38:39.669Z,27.06
2023-05-23T07:41:12.039Z,27.28
2023-05-23T07:43:43.170Z,26.97
2023-05-23T07:46:11.329Z,26.98
2023-05-23T07:48:39.116Z,27.44
2023-05-23T07:51:11.032Z,27.64
2023-05-23T07:53:40.477Z,28.01
2023-05-23T07:56:10.034Z,28.09
2023-05-23T07:58:41.153Z,28.14
2023-05-23T08:01:09.164Z,27.99
2023-05-23T08:03:41.821Z,27.50
2023-05-23T08:06:09.901Z,27.87
2023-05-23T08:08:40.374Z,28.42
2023-05-23T08:11:09.519Z,27.90
2023-05-23T08:13:37.558Z,28.21
2023-05-23T08:16:09.900Z,28.14
2023-05-23T08:18:38.169Z,28.30
2023-05-23T08:21:10.249Z,28.76
2023-05-23T08:23:40.068Z,28.86
2023-05-23T08:26:08.097Z,28.65
2023-05-23T08:28:42.947Z,28.94
2023-05-23T08:31:11.713Z,29.21
2023-05-23T08:33:40.652Z,29.00
2023-05-23T08:36:16.346Z,29.21
2023-05-23T08:38:46.874Z,28.64
2023-05-23T08:41:21.210Z,29.38
2023-05-23T08:43:51.081Z,29.13
2023-05-23T08:46:23.235Z,29.31
2023-05-23T08:48:51.938Z,29.24
2023-05-23T08:51:24.194Z,29.45
2023-05-23T08:53:53.738Z,29.31
2023-05-23T08:56:22.368Z,29.25
2023-05-23T08:58:53.323Z,29.34
2023-05-23T09:01:21.884Z,29.37
2023-05-23T09:03:52.113Z,29.41
2023-05-23T09:06:21.484Z,29.83
2023-05-23T09:08:49.353Z,29.78
2023-05-23T09:11:17.542Z,29.87
2023-05-23T09:13:49.020Z,30.30
2023-05-23T09:16:20.743Z,30.08
2023-05-23T09:18:49.161Z,29.60
2023-05-23T09:21:18.197Z,30.09
2023-05-23T09:23:47.178Z,29.84
2023-05-23T09:26:14.935Z,30.21
2023-05-23T09:28:47.321Z,30.34
2023-05-23T09:31:16.687Z,29.44
2023-05-23T09:33:48.791Z,30.34
2023-05-23T09:36:17.735Z,30.33
2023-05-23T09:38:47.082Z,30.68
2023-05-23T09:41:15.030Z,30.28
2023-05-23T09:43:52.682Z,30.07
2023-05-23T09:46:28.836Z,30.32
2023-05-23T09:48:58.022Z,30.14
2023-05-23T09:51:25.991Z,30.44
2023-05-23T09:53:54.512Z,30.47
2023-05-23T09:56:32.797Z,30.62
2023-05-23T09:59:01.953Z,30.23
2023-05-23T10:01:29.505Z,30.57
2023-05-23T10:04:00.555Z,30.44
2023-05-23T10:06:31.748Z,29.62
2023-05-23T10:09:02.207Z,30.08
2023-05-23T10:11:33.562Z,30.17
2023-05-23T10:14:09.756Z,30.58
2023-05-23T10:16:37.417Z,30.70
2023-05-23T10:19:08.260Z,30.88
2023-05-23T10:21:38.769Z,31.03
2023-05-23T10:24:07.397Z,30.26
2023-05-23T10:26:35.233Z,30.28
2023-05-23T10:29:03.534Z,30.66
2023-05-23T10:31:32.545Z,30.63
2023-05-23T10:34:25.219Z,30.68
2023-05-23T10:36:58.069Z,30.09
2023-05-23T10:39:34.182Z,30.70
2023-05-23T10:42:03.502Z,30.82
2023-05-23T10:44:33.371Z,30.70
2023-05-23T10:47:03.241Z,29.93
2023-05-23T10:49:41.780Z,30.08
2023-05-23T10:52:11.332Z,29.69
2023-05-23T10:54:45.241Z,30.04
2023-05-23T10:57:16.869Z,29.74
2023-05-23T10:59:45.631Z,30.03
2023-05-23T11:02:14.771Z,30.23
2023-05-23T11:04:44.996Z,29.97
2023-05-23T11:07:32.794Z,30.24
2023-05-23T11:10:11.485Z,30.36
2023-05-23T11:12:40.644Z,30.51
2023-05-23T11:15:17.727Z,30.29
2023-05-23T11:17:57.538Z,30.24
2023-05-23T11:20:39.040Z,30.42
2023-05-23T11:23:08.525Z,30.81
2023-05-23T11:25:43.203Z,30.56
2023-05-23T11:28:13.081Z,30.75
2023-05-23T11:30:44.410Z,31.40
2023-05-23T11:33:20.001Z,31.57
2023-05-23T11:35:51.893Z,30.82
2023-05-23T11:38:25.323Z,30.94
2023-05-23T11:40:52.754Z,31.23
2023-05-23T11:43:26.353Z,31.51
2023-05-23T11:45:55.025Z,31.46
2023-05-23T11:48:24.260Z,31.72
2023-05-23T11:50:53.120Z,31.79
2023-05-23T11:53:22.249Z,31.26
2023-05-23T11:55:59.270Z,31.82
2023-05-23T11:58:30.090Z,31.93
2023-05-23T12:01:02.086Z,31.75
2023-05-23T12:03:31.981Z,30.87
2023-05-23T12:06:02.022Z,30.91
2023-05-23T12:08:31.532Z,31.49
2023-05-23T12:11:01.341Z,31.56
2023-05-23T12:13:30.442Z,32.22
2023-05-23T12:16:03.042Z,31.91
2023-05-23T12:18:31.922Z,32.44
2023-05-23T12:21:03.795Z,32.65
2023-05-23T12:23:34.752Z,32.16
2023-05-23T12:26:11.155Z,32.57
2023-05-23T12:28:45.172Z,32.92
2023-05-23T12:31:14.126Z,33.00
2023-05-23T12:33:46.223Z,31.96
2023-05-23T12:36:25.355Z,32.25
2023-05-23T12:41:30.756Z,32.44
2023-05-23T12:44:00.250Z,32.23
2023-05-23T12:46:29.185Z,32.09
2023-05-23T12:49:01.413Z,32.13
2023-05-23T12:51:32.556Z,31.91
2023-05-23T12:54:03.257Z,32.11
2023-05-23T12:56:32.631Z,32.21
2023-05-23T12:59:09.125Z,32.57
2023-05-23T13:01:38.904Z,32.24
2023-05-23T13:04:08.461Z,32.84
2023-05-23T13:06:36.627Z,32.61
2023-05-23T13:09:05.898Z,32.22
2023-05-23T13:11:35.603Z,32.74
2023-05-23T13:14:09.252Z,32.62
2023-05-23T13:16:42.202Z,32.06
2023-05-23T13:19:17.108Z,32.18
2023-05-23T13:21:49.952Z,32.24
2023-05-23T13:24:19.434Z,32.55
2023-05-23T13:26:53.317Z,32.83
2023-05-23T13:29:21.619Z,32.82
2023-05-23T13:31:49.828Z,32.82
2023-05-23T13:34:18.169Z,32.33
2023-05-23T13:36:50.512Z,32.53
2023-05-23T13:39:21.141Z,32.35
2023-05-23T13:41:51.189Z,32.50
2023-05-23T13:44:19.670Z,32.26
2023-05-23T13:46:47.552Z,32.08
2023-05-23T13:49:19.011Z,32.51
2023-05-23T13:51:48.121Z,32.28
2023-05-23T13:54:16.310Z,32.28
2023-05-23T13:56:44.774Z,32.10
2023-05-23T13:59:14.122Z,32.59
2023-05-23T14:01:42.343Z,31.72
2023-05-23T14:04:10.328Z,32.15
2023-05-23T14:06:38.393Z,31.91
2023-05-23T14:09:06.817Z,31.46
2023-05-23T14:11:36.124Z,32.17
2023-05-23T14:14:04.261Z,31.99
2023-05-23T14:16:33.625Z,32.34
2023-05-23T14:19:01.792Z,32.55
2023-05-23T14:21:36.660Z,32.35
2023-05-23T14:24:08.180Z,31.80
2023-05-23T14:26:38.185Z,32.11
2023-05-23T14:29:07.972Z,31.51
2023-05-23T14:31:39.436Z,31.62
2023-05-23T14:34:10.276Z,31.51
2023-05-23T14:36:39.280Z,31.74
2023-05-23T14:39:10.644Z,31.82
2023-05-23T14:41:41.945Z,31.94
2023-05-23T14:44:10.432Z,32.04
2023-05-23T14:46:42.333Z,31.72
2023-05-23T14:49:11.648Z,31.76
2023-05-23T14:54:10.371Z,31.44
2023-05-23T14:56:41.377Z,31.20
2023-05-23T14:59:16.325Z,31.45
2023-05-23T15:01:52.192Z,31.14
2023-05-23T15:04:20.206Z,31.18
2023-05-23T15:06:48.691Z,31.45
2023-05-23T15:09:19.102Z,31.40
2023-05-23T15:11:50.344Z,31.43
2023-05-23T15:14:17.911Z,31.87
2023-05-23T15:16:49.266Z,31.73
2023-05-23T15:19:20.185Z,31.67
2023-05-23T15:21:54.146Z,31.50
2023-05-23T15:24:22.709Z,31.46
2023-05-23T15:26:53.469Z,31.48
2023-05-23T15:29:25.412Z,31.56
2023-05-23T15:31:54.002Z,31.35
2023-05-23T15:34:27.192Z,31.25
2023-05-23T15:36:57.140Z,31.41
2023-05-23T15:39:35.154Z,31.10
2023-05-23T15:42:08.821Z,31.12
2023-05-23T15:44:37.748Z,31.21
2023-05-23T15:47:08.555Z,31.19
2023-05-23T15:49:40.558Z,31.36
2023-05-23T15:52:09.776Z,30.84
2023-05-23T15:54:38.636Z,30.73
2023-05-23T15:57:07.172Z,30.49
2023-05-23T15:59:36.585Z,30.94
2023-05-23T16:02:10.515Z,30.75
2023-05-23T16:04:39.118Z,30.89
2023-05-23T16:07:06.866Z,30.79
2023-05-23T16:09:35.328Z,30.82
2023-05-23T16:12:09.954Z,30.76
2023-05-23T16:14:39.169Z,30.85
2023-05-23T16:17:13.166Z,30.65
2023-05-23T16:19:43.357Z,30.70
2023-05-23T16:22:15.135Z,30.66
2023-05-23T16:24:47.266Z,30.41
2023-05-23T16:27:16.503Z,30.52
2023-05-23T16:29:47.210Z,30.43
2023-05-23T16:32:17.293Z,30.27
2023-05-23T16:34:52.685Z,30.44
2023-05-23T16:37:26.556Z,30.33
2023-05-23T16:40:04.348Z,30.43
2023-05-23T16:42:38.754Z,30.16
2023-05-23T16:45:08.356Z,30.11
2023-05-23T16:47:39.474Z,30.01
2023-05-23T16:50:08.791Z,30.07
2023-05-23T16:55:13.990Z,30.03
2023-05-23T16:57:43.410Z,29.82
2023-05-23T17:00:12.538Z,29.77
2023-05-23T17:02:40.732Z,29.57
2023-05-23T17:05:18.306Z,29.73
2023-05-23T17:07:51.079Z,29.42
2023-05-23T17:10:23.129Z,29.46
2023-05-23T17:12:58.139Z,29.44
2023-05-23T17:18:09.122Z,29.39
2023-05-23T17:20:37.223Z,28.86
2023-05-23T17:23:08.144Z,27.83
2023-05-23T17:25:37.176Z,26.43
2023-05-23T17:28:07.493Z,26.55
2023-05-23T17:30:47.203Z,26.26
2023-05-23T17:33:19.372Z,25.61
2023-05-23T17:35:53.250Z,24.53
2023-05-23T17:38:22.150Z,24.59
2023-05-23T17:40:53.000Z,24.18
2023-05-23T17:43:24.713Z,23.99
2023-05-23T17:48:46.458Z,23.92
2023-05-23T17:51:18.784Z,23.48
2023-05-23T17:53:53.578Z,23.53
2023-05-23T17:56:25.042Z,23.70
2023-05-23T17:58:55.283Z,22.92
2023-05-23T18:01:28.424Z,23.63
2023-05-23T18:04:04.565Z,23.55
2023-05-23T18:06:38.195Z,23.43
2023-05-23T18:09:14.248Z,22.77
2023-05-23T18:11:47.727Z,22.43
2023-05-23T18:14:23.149Z,22.28
2023-05-23T18:16:55.361Z,22.74
2023-05-23T18:19:31.296Z,22.67
2023-05-23T18:22:02.209Z,22.40
2023-05-23T18:24:37.262Z,22.68
2023-05-23T18:27:05.883Z,22.39
2023-05-23T18:29:42.283Z,22.06
2023-05-23T18:32:18.209Z,22.35
2023-05-23T18:34:47.411Z,22.02
2023-05-23T18:37:23.333Z,21.39
2023-05-23T18:39:59.174Z,21.69
2023-05-23T18:42:30.201Z,21.48
2023-05-23T18:45:00.259Z,21.32
2023-05-23T18:47:32.181Z,21.51
2023-05-23T18:50:13.122Z,21.15
2023-05-23T18:55:27.203Z,21.34
2023-05-23T18:57:55.286Z,21.53
2023-05-23T19:00:32.205Z,21.30
2023-05-23T19:03:08.777Z,21.12
2023-05-23T19:08:10.180Z,21.73
2023-05-23T19:10:38.277Z,21.85
2023-05-23T19:13:09.452Z,22.17
2023-05-23T19:15:37.645Z,21.86
2023-05-23T19:18:09.336Z,22.21
2023-05-23T19:20:40.303Z,22.31
2023-05-23T19:23:15.373Z,22.43
2023-05-23T19:25:47.593Z,22.27
2023-05-23T19:28:21.421Z,21.86
2023-05-23T19:30:50.265Z,21.95
2023-05-23T19:33:19.504Z,21.78
2023-05-23T19:35:49.440Z,22.13
2023-05-23T19:38:18.945Z,21.99
2023-05-23T19:40:47.754Z,22.05
2023-05-23T19:43:17.278Z,21.99
2023-05-23T19:45:46.377Z,22.25
2023-05-23T19:48:16.379Z,22.27
2023-05-23T19:50:53.177Z,22.12
2023-05-23T19:53:24.420Z,21.55
2023-05-23T19:55:54.331Z,21.29
2023-05-23T19:58:27.181Z,21.68
2023-05-23T20:00:59.653Z,21.95
2023-05-23T20:03:34.206Z,21.53
2023-05-23T20:06:01.983Z,21.14
2023-05-23T20:08:37.628Z,21.51
2023-05-23T20:11:07.694Z,21.68
2023-05-23T20:13:37.754Z,21.88
2023-05-23T20:16:08.652Z,21.89
2023-05-23T20:18:39.385Z,22.14
2023-05-23T20:21:07.194Z,22.07
2023-05-23T20:23:34.477Z,21.90
2023-05-23T20:26:03.661Z,22.03
2023-05-23T20:28:33.285Z,22.04
2023-05-23T20:31:04.313Z,22.04
2023-05-23T20:33:38.251Z,22.32
2023-05-23T20:36:06.865Z,22.02
2023-05-23T20:38:36.406Z,22.12
2023-05-23T20:41:07.171Z,22.18
2023-05-23T20:43:39.717Z,22.09
2023-05-23T20:46:09.252Z,21.98
2023-05-23T20:48:39.522Z,22.58
2023-05-23T20:51:08.252Z,22.55
2023-05-23T20:53:37.444Z,22.61
2023-05-23T20:56:05.837Z,22.24
2023-05-23T20:58:37.074Z,22.25
2023-05-23T21:01:05.648Z,22.21
2023-05-23T21:03:35.812Z,22.29
2023-05-23T21:06:03.900Z,22.43
2023-05-23T21:08:34.714Z,22.43
2023-05-23T21:11:02.978Z,22.48
2023-05-23T21:13:31.107Z,22.52
2023-05-23T21:15:59.251Z,22.41
2023-05-23T21:18:27.450Z,22.36
2023-05-23T21:20:55.416Z,22.37
2023-05-23T21:23:23.913Z,22.05
2023-05-23T21:25:56.478Z,22.04
2023-05-23T21:28:26.760Z,22.08
2023-05-23T21:30:55.529Z,22.05
2023-05-23T21:33:24.067Z,22.19
2023-05-23T21:35:58.116Z,22.18
2023-05-23T21:38:29.713Z,22.16
2023-05-23T21:40:59.133Z,22.28
2023-05-23T21:43:27.553Z,22.31
2023-05-23T21:45:56.172Z,22.14
2023-05-23T21:48:25.400Z,22.06
2023-05-23T21:50:53.144Z,22.06
2023-05-23T21:53:21.369Z,21.98
2023-05-23T21:55:51.127Z,21.97
2023-05-23T21:58:18.856Z,21.94
2023-05-23T22:00:47.381Z,21.87
2023-05-23T22:03:16.109Z,21.88
2023-05-23T22:05:45.248Z,21.76
2023-05-23T22:08:13.001Z,21.68
2023-05-23T22:10:43.053Z,21.71
2023-05-23T22:13:10.866Z,21.70
2023-05-23T22:15:39.193Z,21.75
2023-05-23T22:18:07.544Z,21.84
2023-05-23T22:20:38.886Z,21.82
2023-05-23T22:23:09.944Z,21.82
2023-05-23T22:25:39.051Z,21.65
2023-05-23T22:28:07.299Z,21.55
2023-05-23T22:30:35.922Z,21.48
2023-05-23T22:33:03.555Z,21.46
2023-05-23T22:35:32.163Z,21.47
2023-05-23T22:38:00.058Z,21.42
2023-05-23T22:40:27.336Z,21.46
2023-05-23T22:42:55.306Z,21.45
2023-05-23T22:45:23.047Z,21.40
2023-05-23T22:47:53.991Z,21.47
2023-05-23T22:50:22.650Z,21.36
2023-05-23T22:52:50.732Z,21.36
2023-05-23T22:55:19.242Z,21.38
2023-05-23T22:57:46.981Z,21.35
2023-05-23T23:00:14.908Z,21.35
2023-05-23T23:02:44.554Z,21.22
2023-05-23T23:05:12.758Z,21.20
2023-05-23T23:07:41.185Z,21.31
2023-05-23T23:10:10.021Z,21.18
2023-05-23T23:12:37.585Z,21.17
2023-05-23T23:15:05.875Z,21.22
2023-05-23T23:17:33.879Z,21.12
2023-05-23T23:20:02.255Z,21.22
2023-05-23T23:22:31.656Z,21.10
2023-05-23T23:24:59.066Z,21.03
2023-05-23T23:27:30.873Z,20.93
2023-05-23T23:29:59.225Z,20.94
2023-05-23T23:32:27.178Z,20.89
2023-05-23T23:34:54.897Z,20.95
2023-05-23T23:37:22.759Z,20.91
2023-05-23T23:39:50.211Z,20.95
2023-05-23T23:42:17.922Z,20.91
2023-05-23T23:44:45.653Z,20.99
2023-05-23T23:47:12.943Z,21.02
2023-05-23T23:49:41.803Z,20.95
2023-05-23T23:52:09.575Z,20.89
2023-05-23T23:54:37.350Z,21.05
2023-05-23T23:57:06.681Z,20.88
2023-05-23T23:59:36.336Z,20.70
